BBC Orinoco — V2DM2 — position and weather

sailwx.info

Track history (hours):
 
Tides and Currents Weather Stations Pressure Air Temp Water Temp Dewpoint Dewpoint Depression Visibility Wind Speed Wind Dir Waves Ship Positions

BBC Orinoco

Last reported at 2017-Feb-18 06:31 UTC. Time now 2017-Feb-20 06:32 UTC.
Position N 05°18' W 004°02'.

Length 143 m; draft 6.2 m.

Type: Ship. MMSI: 305255000.

Date/timePositionNaut miles runAvg speedWind from/ knotsBaromVisibWave heightAir tempDewpointWater temp
2017-Feb-18 06:31N 05°18' W 004°02'0 0.1
2017-Feb-18 04:10N 05°18' W 004°01'0 0.0
2017-Feb-18 01:15N 05°18' W 004°01'0 0.0
2017-Feb-17 22:23N 05°18' W 004°01'0 0.0
2017-Feb-17 21:04N 05°18' W 004°01'0 0.0
2017-Feb-17 18:33N 05°18' W 004°01'0 0.0
2017-Feb-17 17:27N 05°18' W 004°01'0 0.0
2017-Feb-17 00:13N 05°18' W 004°01'0 0.0
2017-Feb-16 22:18N 05°18' W 004°01'0 0.0
2017-Feb-16 18:11N 05°18' W 004°01'0 0.0
2017-Feb-16 13:27N 05°18' W 004°01'0 0.1
2017-Feb-16 09:33N 05°18' W 004°01'5 4.5
2017-Feb-16 08:21N 05°13' W 003°58'4 1.0
2017-Feb-16 04:31N 05°14' W 004°02'0 0.0
2017-Feb-15 17:15N 05°14' W 004°02'0 0.0
2017-Feb-15 16:33N 05°14' W 004°02'0 0.0
2017-Feb-15 15:31N 05°14' W 004°02'0 0.0
2017-Feb-15 14:20N 05°14' W 004°02'0 0.1
2017-Feb-15 13:31N 05°14' W 004°02'0 0.0
2017-Feb-15 12:33N 05°14' W 004°02'0 0.0
2017-Feb-15 11:32N 05°14' W 004°02'0 0.0
2017-Feb-15 10:33N 05°14' W 004°02'0 0.0
2017-Feb-15 09:33N 05°14' W 004°02'1 0.7
2017-Feb-15 08:33N 05°14' W 004°02'3 2.8
2017-Feb-15 07:31N 05°17' W 004°01'0 0.0
2017-Feb-15 06:15N 05°17' W 004°01'0 0.0
2017-Feb-15 04:20N 05°17' W 004°01'0 0.0
2017-Feb-15 02:32N 05°17' W 004°01'0 0.0
2017-Feb-15 01:31N 05°17' W 004°01'0 0.0
2017-Feb-14 22:24N 05°17' W 004°01'0 0.0
2017-Feb-14 11:07N 05°17' W 004°01'0 0.0
2017-Feb-14 06:17N 05°17' W 004°01'0 0.0
2017-Feb-14 05:22N 05°17' W 004°01'0 0.0
2017-Feb-14 03:09N 05°17' W 004°01'0 0.0
2017-Feb-13 22:31N 05°17' W 004°01'0 0.0
2017-Feb-13 19:24N 05°17' W 004°01'0 0.0
2017-Feb-13 15:10N 05°17' W 004°01'0 0.0
2017-Feb-13 14:28N 05°17' W 004°01'0 0.0
2017-Feb-13 12:15N 05°17' W 004°01'0 0.0
2017-Feb-13 11:33N 05°17' W 004°01'0 0.0
2017-Feb-13 10:20N 05°17' W 004°01'0 0.0
2017-Feb-12 21:27N 05°17' W 004°01'0 0.4
2017-Feb-12 20:33N 05°16' W 004°01'4 3.6
2017-Feb-12 19:34N 05°13' W 003°59'4 0.4
2017-Feb-12 09:28N 05°14' W 004°04'0 0.0
2017-Feb-12 08:10N 05°14' W 004°04'0 0.0
2017-Feb-12 03:32N 05°14' W 004°04'0 0.0
2017-Feb-11 19:16N 05°14' W 004°04'0 0.0
2017-Feb-11 17:28N 05°14' W 004°04'0 0.0
2017-Feb-10 20:28N 05°14' W 004°04'  
Track history (hours):
 
Tides and Currents Weather Stations Pressure Air Temp Water Temp Dewpoint Dewpoint Depression Visibility Wind Speed Wind Dir Waves Ship Positions

BBC Orinoco

Last reported at 2017-Feb-18 06:31 UTC. Time now 2017-Feb-20 06:32 UTC.
Position N 05°18' W 004°02'.

Length 143 m; draft 6.2 m.

Type: Ship. MMSI: 305255000.

Date/timePositionNaut miles runAvg speedWind from/ knotsBaromVisibWave heightAir tempDewpointWater temp
2017-Feb-18 06:31N 05°18' W 004°02'0 0.1
2017-Feb-18 04:10N 05°18' W 004°01'0 0.0
2017-Feb-18 01:15N 05°18' W 004°01'0 0.0
2017-Feb-17 22:23N 05°18' W 004°01'0 0.0
2017-Feb-17 21:04N 05°18' W 004°01'0 0.0
2017-Feb-17 18:33N 05°18' W 004°01'0 0.0
2017-Feb-17 17:27N 05°18' W 004°01'0 0.0
2017-Feb-17 00:13N 05°18' W 004°01'0 0.0
2017-Feb-16 22:18N 05°18' W 004°01'0 0.0
2017-Feb-16 18:11N 05°18' W 004°01'0 0.0
2017-Feb-16 13:27N 05°18' W 004°01'0 0.1
2017-Feb-16 09:33N 05°18' W 004°01'5 4.5
2017-Feb-16 08:21N 05°13' W 003°58'4 1.0
2017-Feb-16 04:31N 05°14' W 004°02'0 0.0
2017-Feb-15 17:15N 05°14' W 004°02'0 0.0
2017-Feb-15 16:33N 05°14' W 004°02'0 0.0
2017-Feb-15 15:31N 05°14' W 004°02'0 0.0
2017-Feb-15 14:20N 05°14' W 004°02'0 0.1
2017-Feb-15 13:31N 05°14' W 004°02'0 0.0
2017-Feb-15 12:33N 05°14' W 004°02'0 0.0
2017-Feb-15 11:32N 05°14' W 004°02'0 0.0
2017-Feb-15 10:33N 05°14' W 004°02'0 0.0
2017-Feb-15 09:33N 05°14' W 004°02'1 0.7
2017-Feb-15 08:33N 05°14' W 004°02'3 2.8
2017-Feb-15 07:31N 05°17' W 004°01'0 0.0
2017-Feb-15 06:15N 05°17' W 004°01'0 0.0
2017-Feb-15 04:20N 05°17' W 004°01'0 0.0
2017-Feb-15 02:32N 05°17' W 004°01'0 0.0
2017-Feb-15 01:31N 05°17' W 004°01'0 0.0
2017-Feb-14 22:24N 05°17' W 004°01'0 0.0
2017-Feb-14 11:07N 05°17' W 004°01'0 0.0
2017-Feb-14 06:17N 05°17' W 004°01'0 0.0
2017-Feb-14 05:22N 05°17' W 004°01'0 0.0
2017-Feb-14 03:09N 05°17' W 004°01'0 0.0
2017-Feb-13 22:31N 05°17' W 004°01'0 0.0
2017-Feb-13 19:24N 05°17' W 004°01'0 0.0
2017-Feb-13 15:10N 05°17' W 004°01'0 0.0
2017-Feb-13 14:28N 05°17' W 004°01'0 0.0
2017-Feb-13 12:15N 05°17' W 004°01'0 0.0
2017-Feb-13 11:33N 05°17' W 004°01'0 0.0
2017-Feb-13 10:20N 05°17' W 004°01'0 0.0
2017-Feb-12 21:27N 05°17' W 004°01'0 0.4
2017-Feb-12 20:33N 05°16' W 004°01'4 3.6
2017-Feb-12 19:34N 05°13' W 003°59'4 0.4
2017-Feb-12 09:28N 05°14' W 004°04'0 0.0
2017-Feb-12 08:10N 05°14' W 004°04'0 0.0
2017-Feb-12 03:32N 05°14' W 004°04'0 0.0
2017-Feb-11 19:16N 05°14' W 004°04'0 0.0
2017-Feb-11 17:28N 05°14' W 004°04'0 0.0
2017-Feb-10 20:28N 05°14' W 004°04'  

Dump ship's entire track history